Time;durP1;ratioP1;P1;durP2;ratioP2;P2;SDS_P1;SDS_P2;PMS_P1;PMS_P2;Temp;Humidity;BMP_temperature;BMP_pressure;BME280_temperature;BME280_humidity;BME280_pressure;Samples;Min_cycle;Max_cycle;Signal;HPM_P1;HPM_P2
2023/01/17 00:00:10;;;;;;;5.60;1.20;;;;;;;-3.90;100.00;98130.84;5053704;28;20036;-53
2023/01/17 00:02:35;;;;;;;4.60;1.20;;;;;;;-3.98;100.00;98121.28;5048668;28;20570;-54
2023/01/17 00:10:28;;;;;;;3.45;1.05;;;;;;;-4.11;100.00;98120.91;5057021;28;20043;-53
2023/01/17 00:12:59;;;;;;;3.85;1.05;;;;;;;-4.20;100.00;98120.88;5055641;28;20462;-51
2023/01/17 00:15:26;;;;;;;4.50;1.63;;;;;;;-4.16;100.00;98126.53;5053797;28;20676;-52
2023/01/17 00:17:52;;;;;;;5.55;1.35;;;;;;;-4.15;100.00;98117.00;5053085;28;20411;-51
2023/01/17 00:26:03;;;;;;;10.85;2.47;;;;;;;-3.62;100.00;98101.16;5056980;28;20047;-52
2023/01/17 01:35:21;;;;;;;5.90;2.35;;;;;;;-4.71;100.00;98096.66;5063687;28;20036;-53
2023/01/17 01:37:47;;;;;;;6.03;2.42;;;;;;;-4.63;100.00;98101.88;5071788;28;20068;-50
2023/01/17 01:40:13;;;;;;;7.88;2.45;;;;;;;-4.65;100.00;98084.88;5070146;28;20390;-51
2023/01/17 01:42:53;;;;;;;3.92;1.58;;;;;;;-4.72;100.00;98083.91;5064745;28;20039;-55
2023/01/17 01:45:37;;;;;;;3.47;1.98;;;;;;;-4.75;100.00;98082.44;5062231;28;20127;-51
2023/01/17 01:48:14;;;;;;;5.10;0.98;;;;;;;-4.68;100.00;98085.19;5058038;28;20067;-55
2023/01/17 01:50:39;;;;;;;1.73;0.90;;;;;;;-4.74;100.00;98078.88;5066975;28;20041;-52
2023/01/17 01:53:06;;;;;;;3.88;1.48;;;;;;;-4.77;100.00;98093.88;5065432;28;20078;-51
2023/01/17 01:55:40;;;;;;;1.48;0.82;;;;;;;-4.80;100.00;98089.81;5065421;28;20031;-52
2023/01/17 01:58:17;;;;;;;3.55;1.13;;;;;;;-4.78;100.00;98090.47;5065577;28;20028;-50
2023/01/17 02:00:42;;;;;;;4.65;1.33;;;;;;;-4.91;100.00;98090.84;5062859;28;20055;-52
2023/01/17 02:03:14;;;;;;;1.73;1.10;;;;;;;-4.96;100.00;98092.28;5057035;28;20138;-54
2023/01/17 02:05:42;;;;;;;1.90;0.93;;;;;;;-5.13;100.00;98087.00;5066171;28;20040;-52
2023/01/17 02:08:10;;;;;;;4.10;1.45;;;;;;;-5.23;100.00;98085.47;5061746;28;20029;-51
2023/01/17 02:10:39;;;;;;;2.75;1.27;;;;;;;-5.10;100.00;98091.88;5067020;28;20036;-52
2023/01/17 02:13:05;;;;;;;9.40;1.80;;;;;;;-5.16;100.00;98095.06;5069085;28;20130;-55
2023/01/17 02:15:53;;;;;;;3.50;1.15;;;;;;;-5.14;100.00;98089.72;5064098;28;20456;-54
2023/01/17 02:18:37;;;;;;;5.47;1.33;;;;;;;-5.21;100.00;98092.09;5058087;28;20123;-54
2023/01/17 02:21:31;;;;;;;2.10;0.95;;;;;;;-5.30;100.00;98087.81;5070410;28;20044;-55
2023/01/17 02:24:24;;;;;;;5.32;0.90;;;;;;;-5.54;100.00;98091.81;5054758;28;20036;-52
2023/01/17 02:26:56;;;;;;;2.95;1.13;;;;;;;-5.40;100.00;98095.63;5059107;28;20021;-53
2023/01/17 02:29:36;;;;;;;5.95;0.93;;;;;;;-5.30;100.00;98105.91;5060468;28;20032;-51
2023/01/17 02:32:07;;;;;;;2.70;1.10;;;;;;;-5.33;100.00;98101.84;5061855;28;20076;-53
2023/01/17 02:34:41;;;;;;;15.13;2.90;;;;;;;-5.42;100.00;98099.31;5057405;28;20360;-54
2023/01/17 02:37:14;;;;;;;17.90;2.10;;;;;;;-5.51;100.00;98101.84;5064854;28;20020;-52
2023/01/17 02:39:49;;;;;;;5.38;2.08;;;;;;;-5.47;100.00;98089.47;5063487;28;20124;-51
2023/01/17 02:42:18;;;;;;;6.28;2.55;;;;;;;-5.42;100.00;98094.16;5065285;28;20049;-55
2023/01/17 02:44:43;;;;;;;8.32;2.08;;;;;;;-5.44;100.00;98096.09;5067850;28;20108;-52
2023/01/17 02:47:28;;;;;;;1.67;0.75;;;;;;;-5.45;100.00;98094.47;5059640;28;20151;-55
2023/01/17 02:50:30;;;;;;;9.05;2.38;;;;;;;-5.46;100.00;98088.50;5054010;28;20082;-50
2023/01/17 02:53:10;;;;;;;8.40;1.48;;;;;;;-5.61;100.00;98087.38;5064435;28;20043;-53
2023/01/17 02:55:51;;;;;;;5.93;1.75;;;;;;;-5.62;100.00;98084.00;5063525;28;20048;-52
2023/01/17 02:58:38;;;;;;;3.63;1.45;;;;;;;-5.67;100.00;98083.63;5067996;28;20032;-54
2023/01/17 03:01:53;;;;;;;2.72;1.63;;;;;;;-5.72;100.00;98078.88;5063472;28;20027;-53
2023/01/17 03:04:31;;;;;;;11.85;1.45;;;;;;;-5.66;100.00;98074.91;5060053;28;20123;-55
2023/01/17 03:07:01;;;;;;;7.20;1.05;;;;;;;-5.63;100.00;98074.59;5061743;28;20052;-55
2023/01/17 03:09:29;;;;;;;10.25;1.45;;;;;;;-5.78;100.00;98076.06;5067135;28;20020;-51
2023/01/17 03:11:57;;;;;;;6.22;0.65;;;;;;;-5.92;100.00;98072.22;5060995;28;20033;-52
2023/01/17 03:14:22;;;;;;;6.57;3.30;;;;;;;-6.07;100.00;98069.34;5064303;28;20033;-53
2023/01/17 03:16:47;;;;;;;3.45;0.73;;;;;;;-6.06;100.00;98063.25;5063892;28;20031;-53
2023/01/17 03:19:14;;;;;;;3.95;0.82;;;;;;;-5.96;100.00;98063.19;5063595;28;20025;-54
2023/01/17 03:21:40;;;;;;;6.32;1.10;;;;;;;-6.02;100.00;98064.56;5059954;28;20059;-54
2023/01/17 03:24:06;;;;;;;1.90;0.60;;;;;;;-6.07;100.00;98060.81;5067005;28;20040;-51
2023/01/17 03:26:31;;;;;;;2.40;0.70;;;;;;;-6.12;100.00;98063.81;5065064;28;20381;-54
2023/01/17 03:28:56;;;;;;;2.22;0.88;;;;;;;-6.17;100.00;98060.84;5073341;28;20025;-52
2023/01/17 03:31:22;;;;;;;4.35;0.60;;;;;;;-6.16;100.00;98063.28;5066697;28;20039;-50
2023/01/17 03:33:47;;;;;;;5.78;1.13;;;;;;;-6.20;100.00;98061.13;5060817;28;20127;-51
2023/01/17 03:36:12;;;;;;;5.90;1.13;;;;;;;-6.23;100.00;98061.44;5058376;28;20060;-52
2023/01/17 03:38:38;;;;;;;2.50;0.75;;;;;;;-6.23;100.00;98066.59;5060079;28;20339;-52
2023/01/17 03:41:04;;;;;;;4.68;0.95;;;;;;;-6.26;100.00;98064.31;5064040;28;20055;-55
2023/01/17 03:43:29;;;;;;;8.52;1.23;;;;;;;-6.31;100.00;98071.66;5074831;28;20047;-52
2023/01/17 03:46:05;;;;;;;2.30;0.50;;;;;;;-6.32;100.00;98059.69;5076304;28;20145;-53
2023/01/17 03:48:31;;;;;;;2.35;0.73;;;;;;;-6.33;100.00;98069.22;5061494;28;20309;-52
2023/01/17 03:50:56;;;;;;;2.95;0.90;;;;;;;-6.40;100.00;98074.16;5061708;28;20041;-51
2023/01/17 03:53:22;;;;;;;2.85;0.30;;;;;;;-6.48;100.00;98071.47;5076499;28;20032;-55
2023/01/17 03:55:47;;;;;;;1.92;0.28;;;;;;;-6.50;100.00;98065.63;5060635;28;20037;-50
2023/01/17 03:58:13;;;;;;;2.30;0.98;;;;;;;-6.49;100.00;98067.25;5063444;28;20040;-54
2023/01/17 04:00:38;;;;;;;0.77;0.17;;;;;;;-6.53;100.00;98062.50;5054569;28;20029;-53
2023/01/17 04:03:04;;;;;;;3.65;0.98;;;;;;;-6.61;100.00;98068.38;5063091;28;20025;-50
2023/01/17 04:05:29;;;;;;;4.03;0.40;;;;;;;-6.59;100.00;98075.00;5064898;28;20537;-54
2023/01/17 04:07:54;;;;;;;1.25;0.40;;;;;;;-6.64;100.00;98064.31;5063562;28;20028;-54
2023/01/17 04:10:20;;;;;;;0.95;0.30;;;;;;;-6.65;100.00;98075.59;5061826;28;20021;-52
2023/01/17 04:12:45;;;;;;;1.27;0.25;;;;;;;-6.68;100.00;98072.50;5064755;28;20028;-51
2023/01/17 04:15:11;;;;;;;1.27;0.47;;;;;;;-6.70;100.00;98085.50;5069843;28;20017;-53
2023/01/17 04:17:36;;;;;;;4.07;0.55;;;;;;;-6.71;100.00;98077.91;5068384;28;20035;-53
2023/01/17 04:20:01;;;;;;;1.02;0.52;;;;;;;-6.65;100.00;98085.91;5069315;28;20335;-52
2023/01/17 04:22:27;;;;;;;4.32;0.52;;;;;;;-6.67;100.00;98074.91;5062958;28;20031;-53
2023/01/17 04:24:52;;;;;;;4.88;0.38;;;;;;;-6.61;100.00;98079.53;5065875;28;20151;-52
2023/01/17 04:27:17;;;;;;;1.65;0.40;;;;;;;-6.64;100.00;98078.97;5068831;28;20036;-52
2023/01/17 04:29:43;;;;;;;3.42;0.68;;;;;;;-6.66;100.00;98075.72;5057372;28;20458;-52
2023/01/17 04:32:08;;;;;;;1.02;0.50;;;;;;;-6.60;100.00;98073.41;5059703;28;20178;-53
2023/01/17 04:34:34;;;;;;;3.40;0.43;;;;;;;-6.62;100.00;98072.72;5062944;28;20037;-48
2023/01/17 04:36:59;;;;;;;2.72;0.40;;;;;;;-6.48;100.00;98070.63;5064346;28;20047;-52
2023/01/17 04:39:24;;;;;;;3.30;0.50;;;;;;;-6.36;100.00;98072.88;5060742;28;20031;-50
2023/01/17 04:41:50;;;;;;;2.10;0.25;;;;;;;-6.31;100.00;98064.72;5062055;28;20071;-53
2023/01/17 04:44:15;;;;;;;1.90;0.70;;;;;;;-6.40;100.00;98063.00;5067942;28;20040;-50
2023/01/17 04:46:40;;;;;;;6.47;0.38;;;;;;;-6.52;100.00;98069.31;5057224;28;20052;-51
2023/01/17 04:49:06;;;;;;;1.63;0.85;;;;;;;-6.46;100.00;98066.97;5063655;28;20066;-52
2023/01/17 04:51:31;;;;;;;1.40;0.55;;;;;;;-6.62;100.00;98061.59;5052846;28;20579;-52
2023/01/17 04:53:57;;;;;;;2.83;0.38;;;;;;;-6.62;100.00;98056.44;5060503;28;20032;-53
2023/01/17 04:56:22;;;;;;;9.43;0.87;;;;;;;-6.62;100.00;98059.84;5057824;28;20041;-50
2023/01/17 04:58:47;;;;;;;2.70;0.47;;;;;;;-6.61;100.00;98055.47;5059020;28;20095;-51
2023/01/17 05:01:13;;;;;;;3.15;0.60;;;;;;;-6.70;100.00;98059.72;5065079;28;20108;-50
2023/01/17 05:03:38;;;;;;;0.80;0.22;;;;;;;-6.71;100.00;98057.28;5060977;28;20352;-52
2023/01/17 05:06:03;;;;;;;3.00;0.55;;;;;;;-6.74;100.00;98057.56;5058232;28;20058;-53
2023/01/17 05:08:29;;;;;;;2.22;0.75;;;;;;;-6.78;100.00;98063.97;5061838;28;20074;-50
2023/01/17 05:10:54;;;;;;;2.15;0.68;;;;;;;-6.88;100.00;98061.41;5065826;28;20025;-54
2023/01/17 05:13:20;;;;;;;1.15;0.25;;;;;;;-7.05;100.00;98055.19;5076267;28;20386;-50
2023/01/17 05:15:45;;;;;;;3.00;0.43;;;;;;;-7.09;100.00;98056.44;5067257;28;20038;-50
2023/01/17 05:18:16;;;;;;;1.60;0.28;;;;;;;-7.12;100.00;98054.97;5068123;28;20021;-55
2023/01/17 05:20:41;;;;;;;0.93;0.20;;;;;;;-7.14;100.00;98051.69;5059069;28;20087;-50
2023/01/17 05:23:07;;;;;;;1.95;0.10;;;;;;;-7.13;100.00;98052.50;5061344;28;20037;-53
2023/01/17 05:25:34;;;;;;;3.90;0.47;;;;;;;-7.17;100.00;98051.19;5063662;28;20028;-51
2023/01/17 05:28:00;;;;;;;0.43;0.35;;;;;;;-7.25;100.00;98050.09;5061538;28;20028;-51
2023/01/17 05:30:27;;;;;;;0.30;0.20;;;;;;;-7.32;100.00;98046.44;5061471;28;20029;-53
2023/01/17 05:32:54;;;;;;;6.93;3.50;;;;;;;-7.29;100.00;98043.59;5065141;28;20032;-50
2023/01/17 05:35:23;;;;;;;0.10;0.10;;;;;;;-7.22;100.00;98049.00;5071814;28;20024;-50
2023/01/17 05:37:49;;;;;;;0.15;0.15;;;;;;;-7.17;100.00;98035.72;5062016;28;20024;-51
2023/01/17 05:40:16;;;;;;;0.27;0.27;;;;;;;-7.14;100.00;98045.75;5062177;28;20056;-51
2023/01/17 05:42:49;;;;;;;0.30;0.10;;;;;;;-7.08;100.00;98051.13;5070858;28;20039;-52
2023/01/17 05:45:16;;;;;;;4.18;0.55;;;;;;;-7.11;100.00;98045.47;5069950;28;20390;-48
2023/01/17 05:47:43;;;;;;;6.67;0.53;;;;;;;-7.14;100.00;98048.31;5056062;28;20094;-52
2023/01/17 05:50:10;;;;;;;0.10;0.10;;;;;;;-7.12;100.00;98038.69;5059896;28;20071;-52
2023/01/17 05:52:35;;;;;;;3.10;0.27;;;;;;;-7.10;100.00;98044.50;5059902;28;20025;-52
2023/01/17 05:55:01;;;;;;;0.80;0.30;;;;;;;-7.03;100.00;98048.97;5059224;28;20115;-53
2023/01/17 05:57:26;;;;;;;1.00;0.27;;;;;;;-6.98;100.00;98047.75;5069547;28;20067;-54
2023/01/17 05:59:51;;;;;;;5.70;0.60;;;;;;;-6.93;100.00;98048.94;5060940;28;20040;-52
2023/01/17 06:02:17;;;;;;;0.83;0.33;;;;;;;-6.83;100.00;98057.47;5062046;28;20045;-52
2023/01/17 06:04:42;;;;;;;2.17;0.85;;;;;;;-6.72;100.00;98055.66;5060769;28;20028;-51
2023/01/17 06:07:07;;;;;;;0.70;0.10;;;;;;;-6.59;100.00;98056.16;5066233;28;20683;-49
2023/01/17 06:09:33;;;;;;;2.53;0.30;;;;;;;-6.45;100.00;98057.47;5065398;28;20488;-50
2023/01/17 06:11:58;;;;;;;2.22;0.85;;;;;;;-6.36;100.00;98054.03;5061394;28;20528;-51
2023/01/17 06:14:23;;;;;;;1.00;0.45;;;;;;;-6.12;100.00;98048.31;5055940;28;20044;-50
2023/01/17 06:16:49;;;;;;;1.75;0.30;;;;;;;-5.66;100.00;98053.44;5057195;28;20036;-53
2023/01/17 06:19:14;;;;;;;0.10;0.10;;;;;;;-5.58;100.00;98050.94;5066222;28;20064;-52
2023/01/17 06:21:39;;;;;;;2.17;0.20;;;;;;;-5.51;100.00;98047.63;5059225;28;20040;-50
2023/01/17 06:24:05;;;;;;;5.15;0.20;;;;;;;-5.67;100.00;98060.38;5063076;28;20032;-54
2023/01/17 06:26:30;;;;;;;0.20;0.10;;;;;;;-5.87;100.00;98058.91;5065721;28;20029;-54
2023/01/17 06:28:55;;;;;;;1.25;0.32;;;;;;;-6.10;100.00;98055.94;5059126;28;20330;-51
2023/01/17 06:31:21;;;;;;;0.87;0.10;;;;;;;-6.28;100.00;98066.22;5068595;28;20039;-49
2023/01/17 06:33:46;;;;;;;4.63;0.63;;;;;;;-6.24;100.00;98060.63;5069439;28;20456;-54
2023/01/17 06:36:11;;;;;;;3.00;0.40;;;;;;;-6.41;100.00;98057.03;5068926;28;20029;-50
2023/01/17 06:38:37;;;;;;;0.85;0.30;;;;;;;-6.39;100.00;98068.03;5053453;28;20493;-52
2023/01/17 06:41:03;;;;;;;1.27;0.20;;;;;;;-6.48;100.00;98068.88;5059113;28;20029;-54
2023/01/17 06:43:32;;;;;;;3.50;0.30;;;;;;;-6.46;100.00;98064.38;5064664;28;20119;-54
2023/01/17 06:45:58;;;;;;;0.30;0.17;;;;;;;-6.35;100.00;98060.81;5065546;28;20474;-52
2023/01/17 06:48:23;;;;;;;1.90;0.17;;;;;;;-6.30;100.00;98061.19;5064772;28;20040;-52
2023/01/17 06:50:48;;;;;;;1.13;0.53;;;;;;;-6.28;100.00;98053.31;5052933;28;20032;-51
2023/01/17 06:53:14;;;;;;;0.53;0.40;;;;;;;-6.25;100.00;98058.19;5061191;28;20044;-53
2023/01/17 06:55:40;;;;;;;0.40;0.37;;;;;;;-6.31;100.00;98058.75;5054776;28;20055;-53
2023/01/17 06:58:05;;;;;;;3.97;0.70;;;;;;;-6.33;100.00;98047.78;5056536;28;20478;-51
2023/01/17 07:00:33;;;;;;;3.55;0.75;;;;;;;-6.23;100.00;98049.34;5067902;28;20078;-53
2023/01/17 07:02:59;;;;;;;2.20;0.50;;;;;;;-6.23;100.00;98053.69;5051732;28;20791;-54
2023/01/17 07:05:24;;;;;;;0.13;0.13;;;;;;;-6.15;100.00;98058.94;5056065;28;20020;-55
2023/01/17 07:07:50;;;;;;;2.35;0.43;;;;;;;-6.14;100.00;98045.09;5055649;28;20029;-51
2023/01/17 07:10:15;;;;;;;1.83;0.40;;;;;;;-6.18;100.00;98056.66;5056837;28;20036;-53
2023/01/17 07:12:41;;;;;;;1.27;0.47;;;;;;;-6.17;100.00;98046.22;5058754;28;20028;-51
2023/01/17 07:15:07;;;;;;;1.27;0.30;;;;;;;-6.21;100.00;98054.38;5047286;28;20036;-53
2023/01/17 07:17:33;;;;;;;2.20;0.43;;;;;;;-6.33;100.00;98058.91;5059028;28;20029;-51
2023/01/17 07:19:59;;;;;;;2.83;0.60;;;;;;;-6.38;100.00;98064.47;5052192;28;20051;-50
2023/01/17 07:22:24;;;;;;;0.30;0.30;;;;;;;-6.41;100.00;98069.13;5049286;28;20029;-53
2023/01/17 07:24:49;;;;;;;5.23;0.20;;;;;;;-6.36;100.00;98078.03;5052057;28;20123;-53
2023/01/17 07:27:15;;;;;;;3.47;0.40;;;;;;;-6.42;100.00;98076.03;5059777;28;20086;-52
2023/01/17 07:29:41;;;;;;;4.50;0.80;;;;;;;-6.46;100.00;98074.69;5060023;28;20029;-53
2023/01/17 07:32:07;;;;;;;1.48;0.45;;;;;;;-6.55;100.00;98074.75;5063184;28;20060;-52
2023/01/17 07:34:33;;;;;;;10.95;0.70;;;;;;;-6.63;100.00;98078.84;5052822;28;20055;-55
2023/01/17 07:36:58;;;;;;;0.22;0.10;;;;;;;-6.67;100.00;98076.69;5060547;28;20055;-55
2023/01/17 07:39:24;;;;;;;0.53;0.27;;;;;;;-6.81;100.00;98078.75;5064360;28;20028;-51
2023/01/17 07:41:49;;;;;;;2.83;0.75;;;;;;;-6.86;100.00;98078.34;5055562;28;20485;-52
2023/01/17 07:44:15;;;;;;;2.28;0.45;;;;;;;-6.98;100.00;98073.50;5058705;28;20036;-54
2023/01/17 07:46:40;;;;;;;1.73;0.30;;;;;;;-6.92;100.00;98080.66;5059670;28;20033;-51
2023/01/17 07:49:05;;;;;;;5.23;0.60;;;;;;;-7.05;100.00;98075.81;5054839;28;20041;-56
2023/01/17 07:51:32;;;;;;;7.38;1.55;;;;;;;-7.13;100.00;98079.06;5060332;28;20259;-52
2023/01/17 07:53:57;;;;;;;3.17;0.40;;;;;;;-7.09;100.00;98084.78;5061527;28;20027;-52
2023/01/17 07:56:23;;;;;;;2.27;0.40;;;;;;;-7.19;100.00;98089.94;5059290;28;20119;-54
2023/01/17 07:58:48;;;;;;;3.33;0.17;;;;;;;-7.15;100.00;98087.88;5064394;28;20052;-53
2023/01/17 08:01:14;;;;;;;3.75;0.47;;;;;;;-7.18;100.00;98093.31;5053492;28;20047;-51
2023/01/17 08:03:41;;;;;;;1.27;0.20;;;;;;;-7.19;100.00;98102.00;5058185;28;20032;-54
2023/01/17 08:06:12;;;;;;;2.60;0.70;;;;;;;-7.28;100.00;98108.75;5060234;28;20470;-54
2023/01/17 08:08:37;;;;;;;4.10;0.40;;;;;;;-7.28;100.00;98106.19;5059596;28;20104;-53
2023/01/17 08:11:03;;;;;;;4.10;0.50;;;;;;;-7.33;100.00;98106.63;5059472;28;20100;-55
2023/01/17 08:13:28;;;;;;;6.53;0.60;;;;;;;-7.37;100.00;98107.03;5057123;28;20056;-54
2023/01/17 08:15:53;;;;;;;4.65;0.40;;;;;;;-7.36;100.00;98112.00;5057893;28;20029;-53
2023/01/17 08:18:19;;;;;;;1.27;0.52;;;;;;;-7.31;100.00;98109.03;5052445;28;20048;-53
2023/01/17 08:20:45;;;;;;;4.10;0.57;;;;;;;-7.32;100.00;98108.22;5058473;28;20032;-51
2023/01/17 08:23:10;;;;;;;0.20;0.10;;;;;;;-7.15;100.00;98106.75;5054870;28;20159;-53
2023/01/17 08:25:36;;;;;;;1.98;0.32;;;;;;;-6.94;100.00;98118.63;5054868;28;20478;-56
2023/01/17 08:28:02;;;;;;;1.33;0.25;;;;;;;-6.93;100.00;98121.09;5060501;28;20039;-52
2023/01/17 08:30:27;;;;;;;0.57;0.30;;;;;;;-6.86;100.00;98111.06;5060643;28;20047;-54
2023/01/17 08:32:53;;;;;;;2.92;0.95;;;;;;;-6.75;100.00;98113.47;5056228;28;20036;-53
2023/01/17 08:35:20;;;;;;;3.50;0.17;;;;;;;-6.70;100.00;98115.63;5058906;28;20032;-51
2023/01/17 08:37:47;;;;;;;1.10;0.57;;;;;;;-6.65;100.00;98109.09;5056803;28;20036;-56
2023/01/17 08:40:15;;;;;;;0.22;0.20;;;;;;;-6.66;100.00;98117.78;5064339;28;20032;-51
2023/01/17 08:42:42;;;;;;;4.65;0.60;;;;;;;-6.64;100.00;98120.22;5066253;28;20072;-55
2023/01/17 08:45:10;;;;;;;1.75;0.20;;;;;;;-6.65;100.00;98123.75;5070089;28;20587;-55
2023/01/17 08:47:36;;;;;;;2.30;0.50;;;;;;;-6.62;100.00;98128.63;5067527;28;20044;-55
2023/01/17 08:50:04;;;;;;;4.28;0.20;;;;;;;-6.48;100.00;98124.78;5059126;28;20028;-53
2023/01/17 08:52:30;;;;;;;5.68;0.30;;;;;;;-6.39;100.00;98135.06;5062493;28;20458;-54
2023/01/17 08:54:55;;;;;;;1.55;0.13;;;;;;;-6.44;100.00;98126.94;5056289;28;20060;-54
2023/01/17 08:57:21;;;;;;;1.08;0.30;;;;;;;-6.43;100.00;98127.75;5049258;28;20036;-55
2023/01/17 08:59:46;;;;;;;1.77;0.28;;;;;;;-6.38;100.00;98136.69;5058184;28;20415;-53
2023/01/17 09:02:17;;;;;;;1.52;0.50;;;;;;;-6.34;100.00;98139.81;5054036;28;20398;-54
2023/01/17 09:04:46;;;;;;;2.92;0.60;;;;;;;-6.14;100.00;98137.97;5061615;28;20025;-52
2023/01/17 09:07:12;;;;;;;5.28;0.20;;;;;;;-5.94;100.00;98142.09;5058039;28;20112;-52
2023/01/17 09:09:38;;;;;;;0.30;0.30;;;;;;;-5.85;100.00;98147.31;5049089;28;20028;-50
2023/01/17 09:12:03;;;;;;;2.70;0.20;;;;;;;-5.90;100.00;98141.78;5050737;28;20039;-51
2023/01/17 09:14:29;;;;;;;0.43;0.17;;;;;;;-5.86;100.00;98145.66;5059944;28;20032;-52
2023/01/17 09:16:54;;;;;;;0.00;0.00;;;;;;;-5.82;100.00;98142.66;5062159;28;20036;-50
2023/01/17 09:19:19;;;;;;;0.30;0.30;;;;;;;-5.87;100.00;98155.19;5062256;28;20025;-54
2023/01/17 09:21:45;;;;;;;5.38;1.60;;;;;;;-5.76;100.00;98142.06;5068423;28;20568;-55
2023/01/17 09:24:11;;;;;;;1.55;0.47;;;;;;;-5.72;100.00;98142.63;5061012;28;20021;-55
2023/01/17 09:26:36;;;;;;;1.20;0.38;;;;;;;-5.66;100.00;98144.63;5057375;28;20032;-52
2023/01/17 09:29:02;;;;;;;0.73;0.20;;;;;;;-5.60;100.00;98138.88;5071921;28;20389;-52
2023/01/17 09:31:27;;;;;;;6.43;0.32;;;;;;;-5.49;100.00;98143.84;5063982;28;20487;-50
2023/01/17 09:33:54;;;;;;;8.25;0.40;;;;;;;-5.45;100.00;98143.53;5059041;28;20648;-52
2023/01/17 09:36:20;;;;;;;2.15;0.40;;;;;;;-5.40;100.00;98147.28;5050619;28;20047;-56
2023/01/17 09:38:46;;;;;;;4.35;0.68;;;;;;;-5.32;100.00;98149.16;5062279;28;20120;-53
2023/01/17 09:41:31;;;;;;;2.97;1.23;;;;;;;-5.32;100.00;98159.47;5057511;28;20465;-55
2023/01/17 09:44:15;;;;;;;6.35;0.68;;;;;;;-5.24;100.00;98162.16;5065946;28;20119;-55
2023/01/17 09:46:45;;;;;;;1.85;0.30;;;;;;;-5.09;100.00;98165.81;5054034;28;20360;-54
2023/01/17 09:49:32;;;;;;;4.25;0.57;;;;;;;-4.98;100.00;98169.16;5064019;28;20442;-53
2023/01/17 09:51:58;;;;;;;7.43;1.02;;;;;;;-4.94;100.00;98173.88;5070506;28;20036;-54
2023/01/17 09:54:31;;;;;;;1.65;0.85;;;;;;;-4.78;100.00;98180.94;5062911;28;20032;-54
2023/01/17 09:57:03;;;;;;;4.50;0.50;;;;;;;-4.58;100.00;98189.34;5062563;28;20440;-51
2023/01/17 09:59:42;;;;;;;4.32;0.77;;;;;;;-4.52;100.00;98188.75;5061827;28;20024;-53
2023/01/17 10:02:14;;;;;;;4.95;1.40;;;;;;;-4.48;100.00;98187.47;5061736;28;20490;-53
2023/01/17 10:04:47;;;;;;;2.55;0.80;;;;;;;-4.45;100.00;98174.25;5055560;28;20032;-54
2023/01/17 10:07:31;;;;;;;1.30;0.52;;;;;;;-4.66;100.00;98177.16;5068684;28;20021;-51
2023/01/17 10:10:05;;;;;;;1.08;0.45;;;;;;;-4.64;100.00;98188.19;5057765;28;20072;-56
2023/01/17 10:12:55;;;;;;;1.95;0.52;;;;;;;-4.31;100.00;98191.00;5058421;28;20102;-54
2023/01/17 10:15:46;;;;;;;10.15;0.88;;;;;;;-4.20;100.00;98193.31;5059012;28;20091;-52
2023/01/17 10:18:30;;;;;;;;;;;;;;;-4.05;100.00;98191.00;5049820;28;20039;-55
2023/01/17 10:21:18;;;;;;;4.05;0.20;;;;;;;-3.88;100.00;98196.25;5051560;28;19955;-51
2023/01/17 10:24:22;;;;;;;1.45;0.77;;;;;;;-3.95;100.00;98201.22;5061086;28;20040;-56
2023/01/17 10:26:51;;;;;;;4.10;2.53;;;;;;;-3.85;100.00;98201.09;5053933;28;20147;-55
2023/01/17 10:29:18;;;;;;;1.02;0.90;;;;;;;-3.70;100.00;98209.09;5069644;28;20024;-54
2023/01/17 10:31:50;;;;;;;1.38;0.98;;;;;;;-3.52;100.00;98207.22;5061455;28;20020;-50
2023/01/17 10:34:26;;;;;;;0.77;0.30;;;;;;;-3.35;100.00;98205.50;5065846;28;20086;-55
2023/01/17 10:37:00;;;;;;;2.15;0.77;;;;;;;-3.24;100.00;98209.59;5072543;28;20037;-51
2023/01/17 10:39:28;;;;;;;0.35;0.35;;;;;;;-3.19;100.00;98208.13;5061322;28;20040;-55
2023/01/17 10:41:54;;;;;;;2.83;0.38;;;;;;;-3.12;100.00;98203.94;5057600;28;20040;-51
2023/01/17 10:44:29;;;;;;;0.90;0.20;;;;;;;-3.08;100.00;98207.81;5053784;28;20398;-49
2023/01/17 10:47:09;;;;;;;3.10;0.52;;;;;;;-2.95;100.00;98209.16;5066214;28;20429;-50
2023/01/17 10:49:37;;;;;;;5.47;0.93;;;;;;;-2.77;100.00;98216.78;5061657;28;20060;-53
2023/01/17 10:52:16;;;;;;;0.85;0.43;;;;;;;-2.76;100.00;98215.81;5061928;28;20301;-55
2023/01/17 10:55:07;;;;;;;7.13;0.73;;;;;;;-2.82;100.00;98209.47;5060059;28;20033;-51
2023/01/17 10:57:47;;;;;;;0.77;0.25;;;;;;;-2.70;100.00;98212.59;5065251;28;20037;-50
2023/01/17 11:00:28;;;;;;;1.10;0.35;;;;;;;-2.55;100.00;98210.97;5064320;28;20033;-50
2023/01/17 11:02:54;;;;;;;;;;;;;;;-2.21;100.00;98202.97;5068681;28;20040;-51
2023/01/17 11:05:27;;;;;;;4.50;0.55;;;;;;;-2.22;100.00;98205.72;5062381;28;19923;-51
2023/01/17 11:07:58;;;;;;;1.17;0.40;;;;;;;-2.09;100.00;98200.84;5071028;28;20037;-52
2023/01/17 11:10:48;;;;;;;3.42;1.52;;;;;;;-1.93;100.00;98206.97;5055109;28;20395;-53
2023/01/17 11:13:27;;;;;;;0.90;0.47;;;;;;;-1.68;100.00;98208.50;5064927;28;20056;-51
2023/01/17 11:15:56;;;;;;;0.93;0.63;;;;;;;-1.73;100.00;98200.41;5062181;28;20712;-51
2023/01/17 11:18:26;;;;;;;2.10;1.42;;;;;;;-1.73;100.00;98205.59;5074213;28;20071;-54
2023/01/17 11:20:52;;;;;;;0.88;0.30;;;;;;;-1.73;100.00;98192.59;5059302;28;20037;-53
2023/01/17 11:23:30;;;;;;;2.47;0.60;;;;;;;-1.60;100.00;98186.88;5066288;28;20043;-55
2023/01/17 11:26:01;;;;;;;1.70;0.63;;;;;;;-1.52;100.00;98192.06;5055629;28;20033;-56
2023/01/17 11:28:31;;;;;;;3.05;0.35;;;;;;;-1.55;100.00;98188.00;5071575;28;20048;-56
2023/01/17 11:31:07;;;;;;;0.38;0.28;;;;;;;-1.46;100.00;98182.75;5061215;28;20511;-53
2023/01/17 11:33:32;;;;;;;2.22;0.63;;;;;;;-1.30;100.00;98180.06;5058739;28;20077;-52
2023/01/17 11:35:58;;;;;;;1.25;0.32;;;;;;;-1.53;100.00;98185.22;5070189;28;20024;-54
2023/01/17 11:38:24;;;;;;;4.80;0.47;;;;;;;-1.71;100.00;98188.06;5066565;28;20021;-52
2023/01/17 11:40:52;;;;;;;4.22;0.88;;;;;;;-1.60;100.00;98184.28;5057215;28;20108;-55
2023/01/17 11:43:24;;;;;;;5.78;0.98;;;;;;;-1.67;100.00;98184.16;5061284;28;20031;-56
2023/01/17 11:46:03;;;;;;;7.10;1.13;;;;;;;-1.64;100.00;98191.59;5065278;28;20381;-55
2023/01/17 11:48:35;;;;;;;2.85;0.68;;;;;;;-1.74;100.00;98183.19;5062733;28;20048;-55
2023/01/17 11:51:02;;;;;;;3.28;0.85;;;;;;;-1.63;100.00;98188.00;5065025;28;20107;-55
2023/01/17 11:53:33;;;;;;;2.92;0.80;;;;;;;-1.54;100.00;98181.81;5055952;28;20035;-54
2023/01/17 11:56:10;;;;;;;;;;;;;;;-1.35;100.00;98174.56;5067789;28;20063;-57
2023/01/17 11:58:44;;;;;;;3.88;1.00;;;;;;;-1.25;100.00;98169.97;5072586;28;19982;-54
2023/01/17 12:01:40;;;;;;;3.20;0.85;;;;;;;-0.90;100.00;98170.41;5068227;28;20032;-55
2023/01/17 12:04:09;;;;;;;6.50;1.48;;;;;;;-0.78;100.00;98162.97;5056723;28;20436;-54
2023/01/17 12:06:48;;;;;;;3.83;0.93;;;;;;;-0.81;100.00;98168.53;5057615;28;20038;-55
2023/01/17 12:09:50;;;;;;;1.88;0.80;;;;;;;-0.71;100.00;98169.09;5071651;28;20391;-57
2023/01/17 12:15:09;;;;;;;9.15;0.90;;;;;;;-0.73;100.00;98169.25;5061855;28;20087;-52
2023/01/17 12:17:47;;;;;;;2.20;1.45;;;;;;;-0.57;100.00;98173.53;5064672;28;20028;-56
2023/01/17 12:20:42;;;;;;;2.63;1.02;;;;;;;-0.37;100.00;98179.03;5065034;28;20107;-51
2023/01/17 12:23:32;;;;;;;2.20;1.35;;;;;;;-0.54;100.00;98169.75;5070885;28;20020;-53
2023/01/17 12:26:26;;;;;;;2.78;2.42;;;;;;;-0.35;100.00;98171.06;5060752;28;20436;-48
2023/01/17 12:29:29;;;;;;;5.93;3.03;;;;;;;-0.39;100.00;98180.22;5055344;28;20025;-48
2023/01/17 12:32:36;;;;;;;4.93;2.60;;;;;;;-0.55;100.00;98170.75;5061423;28;20170;-50
2023/01/17 12:35:23;;;;;;;7.78;2.25;;;;;;;-0.62;100.00;98177.63;5039635;28;20061;-51
2023/01/17 12:37:55;;;;;;;4.78;2.60;;;;;;;-0.77;100.00;98175.81;5069393;28;20035;-54
2023/01/17 12:40:34;;;;;;;7.03;3.13;;;;;;;-0.76;100.00;98185.22;5063205;28;20036;-51
2023/01/17 12:43:12;;;;;;;8.02;2.92;;;;;;;-0.73;100.00;98184.06;5061212;28;20040;-47
2023/01/17 12:45:42;;;;;;;5.55;2.78;;;;;;;-0.71;100.00;98184.72;5061046;28;20115;-54
2023/01/17 12:48:15;;;;;;;5.05;2.85;;;;;;;-0.57;100.00;98185.72;5065034;28;20044;-51
2023/01/17 12:51:19;;;;;;;5.25;2.58;;;;;;;-0.66;100.00;98187.59;5064316;28;20035;-53
2023/01/17 12:53:57;;;;;;;6.10;3.72;;;;;;;-0.78;100.00;98199.41;5059425;28;20055;-52
2023/01/17 12:56:32;;;;;;;5.40;2.45;;;;;;;-0.75;100.00;98191.25;5059931;28;20056;-48
2023/01/17 12:59:29;;;;;;;4.53;3.65;;;;;;;-0.73;100.00;98190.09;5059723;28;20743;-49
2023/01/17 13:01:57;;;;;;;5.18;3.50;;;;;;;-0.66;100.00;98198.81;5059233;28;20292;-55